Flight Track Log - Related Links

Times and Time Zones

All times are in EDT time to prevent confusion due to time zone crossing. See the UAL4407 flight status page for this flight to view local times or setup timezone preferences in your user account.


Time Position Orientation Groundspeed Altitude Reporting Facility
EDT Latitude Longitude Course Direction KTS MPH feet Rate Location/Type
Thu 08:14:24 AM 40.6500 -74.1833 246° West 174 200 1,400  Level New York TRACON
Thu 08:15:24 AM 40.6333 -74.2333 246° West 228 262 3,700 2,550 Climbing New York TRACON
Thu 08:16:24 AM 40.6500 -74.3167 285° West 238 274 6,500 2,850 Climbing New York TRACON
Thu 08:17:24 AM 40.6833 -74.3833 303° West 240 276 9,400 1,602 Climbing New York TRACON
Thu 08:19:50 AM 40.7789 -74.5939 301° West 303 349 12,000 1,194 Climbing New York Center
Thu 08:20:50 AM 40.8100 -74.7217 288° West 333 383 13,500 1,450 Climbing New York Center
Thu 08:21:50 AM 40.8378 -74.8275 289° West 343 395 14,900 1,400 Climbing New York Center
Thu 08:22:50 AM 40.8669 -74.9500 288° West 349 402 16,300 1,300 Climbing New York Center
Thu 08:23:50 AM 40.8958 -75.0700 288° West 349 402 17,500 1,050 Climbing New York Center
Thu 08:24:50 AM 40.9075 -75.2053 277° West 340 391 18,400 1,000 Climbing New York Center
Thu 08:25:50 AM 40.8819 -75.3325 255° West 347 399 19,500 1,000 Climbing New York Center
Thu 08:26:50 AM 40.8567 -75.4461 254° West 354 407 20,400 950 Climbing New York Center
Thu 08:27:50 AM 40.8264 -75.5783 253° West 365 420 21,400 1,000 Climbing New York Center
Thu 08:28:50 AM 40.7917 -75.7103 251° West 377 434 22,400 1,041 Climbing New York Center
Thu 08:29:51 AM 40.7631 -75.8425 254° West 377 434 23,500 1,050 Climbing New York Center
Thu 08:30:50 AM 40.7306 -75.9714 252° West 377 434 24,500 1,008 Climbing New York Center
Thu 08:31:50 AM 40.6994 -76.1033 253° West 377 434 25,500 1,050 Climbing New York Center
Thu 08:32:50 AM 40.6686 -76.2322 253° West 377 434 26,600 1,050 Climbing New York Center
Thu 08:33:50 AM 40.6814 -76.3592 278° West 361 415 27,600 1,000 Climbing New York Center
Thu 08:34:50 AM 40.7006 -76.4839 281° West 354 407 28,600 1,000 Climbing New York Center
Thu 08:35:50 AM 40.7175 -76.6058 280° West 349 402 29,600 1,050 Climbing New York Center
Thu 08:36:50 AM 40.7386 -76.7281 283° West 344 396 30,700 1,050 Climbing New York Center
Thu 08:37:50 AM 40.7550 -76.8528 280° West 344 396 31,700 1,000 Climbing New York Center
Thu 08:38:50 AM 40.7717 -76.9750 280° West 338 389 32,700 1,000 Climbing New York Center
Thu 08:39:50 AM 40.7903 -77.0972 281° West 338 389 33,700 1,050 Climbing New York Center
Thu 08:40:50 AM 40.8067 -77.2167 280° West 338 389 34,800 1,050 Climbing New York Center
Thu 08:41:50 AM 40.8250 -77.3364 281° West 338 389 35,800 590 Climbing New York Center
Thu 08:42:52 AM 40.8436 -77.4536 282° West 338 389 36,000 91 Climbing New York Center
Thu 08:44:02 AM 40.8642 -77.6036 280° West 338 389 36,000  Level New York Center
Thu 08:46:33 AM 40.9108 -77.9478 280° West 367 422 36,000  Level Cleveland Center
Thu 08:47:35 AM 40.9275 -78.0817 279° West 369 425 36,000  Level Cleveland Center
Thu 08:48:37 AM 40.9442 -78.2156 279° West 370 426 36,000  Level Cleveland Center
Thu 08:49:39 AM 40.9619 -78.3597 279° West 369 425 36,000  Level Cleveland Center
Thu 08:50:41 AM 40.9781 -78.4917 279° West 369 425 36,000  Level Cleveland Center
Thu 08:51:43 AM 40.9928 -78.6242 278° West 367 422 36,000  Level Cleveland Center
Thu 08:52:45 AM 41.0089 -78.7567 279° West 367 422 36,000  Level Cleveland Center
Thu 08:53:47 AM 41.0256 -78.8892 280° West 367 422 36,000  Level Cleveland Center
Thu 08:54:49 AM 41.0444 -79.0500 279° West 367 422 36,000  Level Cleveland Center
Thu 08:55:51 AM 41.0828 -79.1711 293° West 359 413 36,000  Level Cleveland Center
Thu 08:56:53 AM 41.1300 -79.2892 298° West 367 422 36,000  Level Cleveland Center
Thu 08:57:55 AM 41.1797 -79.4086 299° West 367 422 36,000  Level Cleveland Center
Thu 08:58:57 AM 41.2297 -79.5294 299° West 369 425 36,000  Level Cleveland Center
Thu 09:00:00 AM 41.2800 -79.6489 299° West 369 425 36,000  Level Cleveland Center
Thu 09:01:02 AM 41.3403 -79.7944 299° West 372 428 36,000  Level Cleveland Center
Thu 09:02:04 AM 41.3517 -79.9289 276° West 368 423 36,000  Level Cleveland Center
Thu 09:03:06 AM 41.3606 -80.0606 275° West 368 423 36,000  Level Cleveland Center
Thu 09:04:08 AM 41.3689 -80.1953 275° West 368 423 36,000  Level Cleveland Center
Thu 09:05:10 AM 41.3775 -80.3297 275° West 368 423 36,000  Level Cleveland Center
Thu 09:06:12 AM 41.3875 -80.4917 275° West 368 423 36,000  Level Cleveland Center
Thu 09:07:14 AM 41.3953 -80.6267 274° West 368 423 36,000  Level Cleveland Center
Thu 09:08:16 AM 41.4036 -80.7639 275° West 370 426 36,000  Level Cleveland Center
Thu 09:09:18 AM 41.4122 -80.8981 275° West 368 423 36,000  Level Cleveland Center
Thu 09:10:20 AM 41.4208 -81.0333 275° West 368 423 36,000  Level Cleveland Center
Thu 09:11:22 AM 41.4283 -81.1972 274° West 369 425 36,000  Level Cleveland Center
Thu 09:12:24 AM 41.4381 -81.3328 276° West 371 427 36,000  Level Cleveland Center
Thu 09:13:26 AM 41.4436 -81.4725 273° West 374 430 36,000  Level Cleveland Center
Thu 09:14:28 AM 41.4506 -81.6100 274° West 375 432 36,000  Level Cleveland Center
Thu 09:15:30 AM 41.4581 -81.7489 274° West 375 432 36,000  Level Cleveland Center
Thu 09:16:33 AM 41.4639 -81.9031 273° West 382 440 36,000  Level Cleveland Center
Thu 09:17:35 AM 41.4714 -82.0408 274° West 379 436 36,000  Level Cleveland Center
Thu 09:18:37 AM 41.4775 -82.1800 273° West 378 435 36,000  Level Cleveland Center
Thu 09:19:39 AM 41.4836 -82.3208 273° West 379 436 36,000  Level Cleveland Center
Thu 09:20:41 AM 41.4919 -82.4900 274° West 380 437 36,000  Level Cleveland Center
Thu 09:21:42 AM 41.4975 -82.6314 273° West 380 437 36,000  Level Cleveland Center
Thu 09:22:44 AM 41.5031 -82.7714 273° West 380 437 36,000  Level Cleveland Center
Thu 09:23:46 AM 41.5092 -82.9119 273° West 380 437 36,000  Level Cleveland Center
Thu 09:24:48 AM 41.5147 -83.0533 273° West 380 437 36,000  Level Cleveland Center
Thu 09:25:50 AM 41.5194 -83.1931 273° West 380 437 36,000  Level Cleveland Center
Thu 09:26:52 AM 41.5258 -83.3336 274° West 379 436 36,000  Level Cleveland Center
Thu 09:27:54 AM 41.5311 -83.5019 272° West 379 436 36,000  Level Cleveland Center
Thu 09:28:56 AM 41.5364 -83.6408 273° West 379 436 36,000  Level Cleveland Center
Thu 09:29:58 AM 41.5406 -83.7808 272° West 378 435 36,000  Level Cleveland Center
Thu 09:31:00 AM 41.5444 -83.9225 272° West 379 436 36,000  Level Cleveland Center
Thu 09:32:02 AM 41.5497 -84.0619 273° West 379 436 36,000  Level Cleveland Center
Thu 09:32:32 AM 41.5522 -84.1375 273° West 378 435 36,000  Level Chicago Center
Thu 09:33:34 AM 41.5564 -84.2750 272° West 374 430 36,000  Level Chicago Center
Thu 09:34:36 AM 41.5600 -84.4147 272° West 375 432 36,000  Level Chicago Center
Thu 09:35:38 AM 41.5644 -84.5831 272° West 375 432 36,000  Level Chicago Center
Thu 09:36:40 AM 41.5681 -84.7214 272° West 375 432 36,000  Level Chicago Center
Thu 09:37:42 AM 41.5714 -84.8628 272° West 376 433 36,000  Level Chicago Center
Thu 09:38:44 AM 41.5744 -85.0025 272° West 377 434 36,000  Level Chicago Center
Thu 09:39:46 AM 41.5772 -85.1436 272° West 377 434 36,000  Level Chicago Center
Thu 09:40:48 AM 41.5803 -85.2850 272° West 378 435 36,000  Level Chicago Center
Thu 09:41:49 AM 41.5828 -85.4281 271° West 378 435 36,000  Level Chicago Center
Thu 09:42:51 AM 41.5853 -85.5753 271° West 378 435 36,000  Level Chicago Center
Thu 09:43:53 AM 41.5872 -85.7167 271° West 378 435 36,000  Level Chicago Center
Thu 09:44:55 AM 41.5889 -85.8586 271° West 379 436 36,000  Level Chicago Center
Thu 09:45:57 AM 41.5917 -86.0294 271° West 381 438 36,000  Level Chicago Center
Thu 09:46:59 AM 41.5944 -86.1683 272° West 380 437 36,000  Level Chicago Center
Thu 09:48:01 AM 41.5947 -86.3092 270° West 380 437 36,000  Level Chicago Center
Thu 09:49:03 AM 41.5961 -86.4494 271° West 380 437 36,000  Level Chicago Center
Thu 09:50:05 AM 41.5978 -86.5922 271° West 383 441 36,000  Level Chicago Center
Thu 09:51:07 AM 41.5992 -86.7342 271° West 382 440 36,000  Level Chicago Center
Thu 09:52:08 AM 41.5997 -86.9019 270° West 382 440 36,000  Level Chicago Center
Thu 09:53:10 AM 41.6008 -87.0442 271° West 382 440 36,000  Level Chicago Center
Thu 09:54:12 AM 41.6006 -87.1833 270° West 381 438 36,000  Level Chicago Center
Thu 09:55:14 AM 41.6008 -87.3225 270° West 380 437 36,000  Level Chicago Center
Thu 09:56:17 AM 41.6022 -87.4611 271° West 379 436 36,000  Level Chicago Center
Thu 09:57:18 AM 41.6011 -87.6006 269° West 379 436 36,000  Level Chicago Center
Thu 09:58:20 AM 41.6019 -87.7392 271° West 379 436 36,000  Level Chicago Center
Thu 09:59:22 AM 41.5997 -87.9083 269° West 377 434 36,000  Level Chicago Center
Thu 10:00:24 AM 41.5989 -88.0483 270° West 374 430 36,000  Level Chicago Center
Thu 10:01:26 AM 41.6000 -88.1861 271° West 375 432 36,000  Level Chicago Center
Thu 10:02:28 AM 41.5989 -88.3272 269° West 378 435 36,000  Level Chicago Center
Thu 10:03:30 AM 41.5975 -88.4686 269° West 379 436 36,000  Level Chicago Center
Thu 10:04:31 AM 41.5961 -88.6100 269° West 380 437 36,000  Level Chicago Center
Thu 10:05:33 AM 41.5950 -88.7808 270° West 380 437 36,000  Level Chicago Center
Thu 10:06:35 AM 41.5922 -88.9233 269° West 382 440 36,000  Level Chicago Center
Thu 10:07:37 AM 41.5906 -89.0661 269° West 384 442 36,000  Level Chicago Center
Thu 10:08:39 AM 41.5886 -89.2108 269° West 386 444 36,000  Level Chicago Center
Thu 10:09:41 AM 41.5856 -89.3539 268° West 386 444 36,000  Level Chicago Center
Thu 10:10:43 AM 41.5836 -89.4972 269° West 386 444 36,000  Level Chicago Center
Thu 10:11:44 AM 41.5819 -89.6697 269° West 387 445 36,000  Level Chicago Center
Thu 10:12:46 AM 41.5775 -89.8114 268° West 387 445 36,000  Level Chicago Center
Thu 10:13:48 AM 41.5758 -89.9547 269° West 387 445 36,000  Level Chicago Center
Thu 10:14:50 AM 41.5725 -90.0969 268° West 386 444 36,000  Level Chicago Center
Thu 10:15:52 AM 41.5683 -90.2417 268° West 388 447 36,000  Level Chicago Center
Thu 10:16:53 AM 41.5644 -90.3872 268° West 393 452 36,000  Level Chicago Center
Thu 10:17:55 AM 41.5603 -90.5278 268° West 384 442 36,000  Level Chicago Center
Thu 10:18:57 AM 41.5561 -90.6811 268° West 383 441 36,000  Level Chicago Center
Thu 10:19:59 AM 41.5522 -90.8206 268° West 380 437 36,000  Level Chicago Center
Thu 10:21:01 AM 41.5483 -90.9583 268° West 376 433 36,000  Level Chicago Center
Thu 10:22:03 AM 41.5433 -91.1258 268° West 376 433 36,000  Level Chicago Center
Thu 10:23:05 AM 41.5392 -91.2639 268° West 376 433 36,000  Level Chicago Center
Thu 10:24:07 AM 41.5342 -91.4014 267° West 376 433 36,000  Level Chicago Center
Thu 10:25:09 AM 41.5292 -91.5403 267° West 376 433 36,000  Level Chicago Center
Thu 10:26:11 AM 41.5250 -91.6800 268° West 376 433 36,000  Level Chicago Center
Thu 10:27:13 AM 41.5183 -91.8481 267° West 379 436 36,000  Level Chicago Center
Thu 10:28:14 AM 41.5136 -91.9894 267° West 382 440 36,000 -683 Level Chicago Center
Thu 10:29:16 AM 41.5089 -92.1306 267° West 383 441 34,600 -968 Descending Chicago Center
Thu 10:30:18 AM 41.5025 -92.2689 267° West 377 434 34,000 -290 Descending Chicago Center
Thu 10:31:20 AM 41.4956 -92.4108 266° West 383 441 34,000  Level Chicago Center
Thu 10:32:22 AM 41.4900 -92.5542 267° West 385 443 34,000  Level Chicago Center
Thu 10:33:23 AM 41.4842 -92.7053 267° West 385 443 34,000  Level Chicago Center
Thu 10:34:25 AM 41.4778 -92.8406 266° West 375 432 34,000  Level Chicago Center
Thu 10:35:27 AM 41.4689 -93.0056 266° West 375 432 34,000  Level Chicago Center
Thu 10:36:29 AM 41.4633 -93.1444 267° West 377 434 34,000  Level Minneapolis Center
Thu 10:37:31 AM 41.4564 -93.2828 266° West 377 434 34,000  Level Minneapolis Center
Thu 10:38:32 AM 41.4494 -93.4214 266° West 377 434 34,000  Level Minneapolis Center
Thu 10:39:34 AM 41.4425 -93.5628 266° West 380 437 34,000 -1,113 Level Minneapolis Center
Thu 10:40:36 AM 41.4400 -93.7314 269° West 382 440 31,700 -1,935 Descending Minneapolis Center
Thu 10:41:38 AM 41.4497 -93.8708 275° West 383 441 30,000 -823 Descending Minneapolis Center
Thu 10:42:40 AM 41.4572 -94.0131 274° West 384 442 30,000  Level Minneapolis Center
Thu 10:43:41 AM 41.4664 -94.1583 275° West 390 449 30,000 -195 Level Minneapolis Center
Thu 10:44:43 AM 41.4742 -94.3147 274° West 396 456 29,600 -1,161 Descending Minneapolis Center
Thu 10:45:45 AM 41.4806 -94.4606 273° West 396 456 27,600 -1,935 Descending Minneapolis Center
Thu 10:46:47 AM 41.4892 -94.6128 274° West 408 470 25,600 -1,935 Descending Minneapolis Center
Thu 10:47:49 AM 41.4967 -94.7647 274° West 409 471 23,600 -2,323 Descending Minneapolis Center
Thu 10:48:51 AM 41.5042 -94.9442 273° West 408 470 20,800 -2,581 Descending Minneapolis Center
Thu 10:49:22 AM 41.5189 -95.0217 284° West 389 448 19,600 -2,739 Descending Minneapolis Center
Thu 10:50:23 AM 41.5225 -95.1578 272° West 366 421 16,600 -2,774 Descending Minneapolis Center
Thu 10:50:55 AM 41.5114 -95.2167 256° West 363 418 15,300 -2,459 Descending Minneapolis Center
Thu 10:51:24 AM 41.5181 -95.2978 276° West 343 395 14,100 -2,129 Descending Minneapolis Center
Thu 10:51:57 AM 41.5111 -95.3408 258° West 346 398 13,100 -2,000 Descending Minneapolis Center
Thu 10:52:30 AM 41.5183 -95.4203 277° West 305 351 11,900 -1,742 Descending Minneapolis Center
Thu 10:52:59 AM 41.5133 -95.4522 258° West 325 374 11,300 -1,636 Descending Minneapolis Center
Thu 10:53:25 AM 41.5189 -95.5178 276° West 275 316 10,400 -1,770 Descending Minneapolis Center
Thu 10:54:00 AM 41.5136 -95.5533 259° West 300 345 9,500 -2,149 Descending Minneapolis Center
Thu 10:54:32 AM 41.5175 -95.6208 274° West 258 297 8,000 -2,419 Descending Minneapolis Center
Thu 10:55:02 AM 41.5136 -95.6475 259° West 276 318 7,000 -2,636 Descending Minneapolis Center
Thu 10:55:38 AM 41.5142 -95.7269 271° West 248 285 5,100 -2,710 Descending Minneapolis Center
Thu 10:56:04 AM 41.5111 -95.7558 262° West 257 296 4,200 -1,672 Descending Minneapolis Center
Thu 10:56:39 AM 41.5117 -95.8136 271° West 235 270 3,400 -1,065 Descending Minneapolis Center
Thu 10:57:06 AM 41.5100 -95.8392 265° West 242 278 3,100 -393 Descending Minneapolis Center
Thu 10:57:40 AM 41.5125 -95.8886 274° West 197 227 3,000 -97 Descending Minneapolis Center
Thu 10:58:08 AM 41.5136 -95.9108 274° West 217 250 3,000  Level Minneapolis Center
Thu 10:58:34 AM 41.5039 -95.9508 252° West 187 215 3,000  Level Minneapolis Center
Thu 10:59:10 AM 41.4881 -95.9681 219° Southwest 201 231 3,000  Level Minneapolis Center
Thu 10:59:35 AM 41.4675 -96.0025 231° Southwest 187 215 3,000 97 Level Minneapolis Center
Thu 11:00:12 AM 41.4489 -96.0128 202° Southwest 202 232 3,100  Climbing Minneapolis Center
Thu 11:00:42 AM 41.4178 -96.0108 177° South 171 197 3,000 -97 Descending Minneapolis Center
Thu 11:01:14 AM 41.4042 -95.9933 136° Southeast 181 208 3,000 -333 Level Minneapolis Center
Thu 11:01:36 AM 41.3800 -95.9764 152° Southeast 170 196 2,700 -581 Descending Minneapolis Center
Thu 11:02:16 AM 41.3650 -95.9561 135° Southeast 172 198 2,400 -689 Descending Minneapolis Center
Thu 11:02:37 AM 41.3508 -95.9464 153° Southeast 124 143 2,000 -885 Descending Minneapolis Center
Thu 11:03:17 AM 41.3325 -95.9233 137° Southeast 144 166 1,500 -627 Descending Minneapolis Center
Thu 11:03:44 AM 41.3197 -95.9194 167° South 117 135 1,300 -387 Descending Minneapolis Center
Thu 11:04:19 AM 41.3072 -95.9000 131° Southeast 134 154 1,100 -343 Descending Minneapolis Center

Login

Don't have an account? Register now (free) for customized features, flight alerts, and more!